Terminal Aerodrome Forecast
Issued by NWS Binghamton, NY

Home | Current Version | Previous Version | Text Only | Print | Product List | Glossary On
Versions: 1 2 3 4 5 6 7 8 9 10 11 12 13 14 15 16 17
000
FTUS41 KBGM 270526
TAFSYR
TAF
KSYR 270526Z 2706/2806 16005KT P6SM BKN080
     FM271200 23010KT P6SM -SHRA BKN040 OVC070
     FM271900 21008KT P6SM BKN050
     FM280300 19005KT P6SM BKN060 BKN200=

USA.gov is the U.S. government's official web portal to all federal, state and local government web resources and services.